Time;durP1;ratioP1;P1;durP2;ratioP2;P2;SDS_P1;SDS_P2;PMS_P1;PMS_P2;Temp;Humidity;BMP_temperature;BMP_pressure;BME280_temperature;BME280_humidity;BME280_pressure;Samples;Min_cycle;Max_cycle;Signal;HPM_P1;HPM_P2
2023/04/18 00:01:11;;;;;;;6.27;4.37;;;6.50;88.80;;;6.92;73.19;98467.13;5035365;28;20458;-75
2023/04/18 00:03:39;;;;;;;6.03;4.97;;;6.60;87.90;;;6.56;72.68;98397.91;5043229;28;20517;-75
2023/04/18 00:06:06;;;;;;;7.27;4.77;;;6.70;87.30;;;6.93;72.72;98458.88;5034299;28;20454;-75
2023/04/18 00:08:34;;;;;;;7.70;4.20;;;6.70;86.70;;;6.69;74.02;98457.22;5040143;28;20455;-75
2023/04/18 00:11:01;;;;;;;7.10;5.60;;;6.60;87.20;;;6.87;73.23;98469.50;5032857;28;20458;-75
2023/04/18 00:13:29;;;;;;;6.17;4.97;;;6.60;87.10;;;6.96;72.97;98468.41;5037496;28;20546;-76
2023/04/18 00:15:57;;;;;;;6.23;4.83;;;6.60;87.00;;;6.64;73.99;98465.81;5040946;28;20754;-75
2023/04/18 00:18:25;;;;;;;5.90;4.30;;;6.50;87.00;;;6.64;72.38;98411.28;5043367;28;20453;-72
2023/04/18 00:20:52;;;;;;;6.50;4.50;;;6.60;87.00;;;6.65;73.44;98455.91;5040687;28;20477;-74
2023/04/18 00:23:21;;;;;;;6.33;4.83;;;6.50;86.10;;;6.69;72.73;98446.47;5038439;28;20724;-73
2023/04/18 00:25:50;;;;;;;6.07;4.47;;;6.50;86.40;;;6.56;72.96;98427.44;5016877;28;20449;-73
2023/04/18 00:28:17;;;;;;;5.47;4.10;;;6.60;86.10;;;6.84;72.09;98453.75;5050924;28;20460;-72
2023/04/18 00:30:44;;;;;;;6.90;4.37;;;6.60;85.80;;;6.69;72.49;98446.47;5046169;28;20456;-73
2023/04/18 00:33:13;;;;;;;6.07;4.40;;;6.60;85.70;;;6.66;72.49;98452.22;5034819;28;20473;-72
2023/04/18 00:35:41;;;;;;;4.93;4.43;;;6.60;85.20;;;6.66;72.01;98441.47;5033237;28;20516;-73
2023/04/18 00:38:08;;;;;;;6.50;4.07;;;6.50;85.40;;;6.41;72.04;98389.81;5029885;28;20470;-72
2023/04/18 00:40:37;;;;;;;7.93;5.43;;;6.50;85.30;;;6.66;72.57;98460.25;5038677;28;20466;-72
2023/04/18 00:43:07;;;;;;;7.93;4.80;;;6.50;85.20;;;6.54;73.25;98451.81;5033499;28;20445;-73
2023/04/18 00:45:34;;;;;;;4.37;3.97;;;6.50;85.40;;;6.71;72.74;98433.69;5036487;28;20459;-73
2023/04/18 00:48:02;;;;;;;6.83;4.37;;;6.50;86.50;;;6.84;72.17;98434.94;5037266;28;20450;-73
2023/04/18 00:50:31;;;;;;;6.07;3.93;;;6.60;86.00;;;6.91;71.81;98439.41;5039289;28;20458;-73
2023/04/18 00:52:59;;;;;;;6.53;4.30;;;6.60;85.70;;;6.78;71.91;98429.28;5035234;28;20475;-73
2023/04/18 00:55:26;;;;;;;7.50;5.00;;;6.60;85.50;;;6.68;72.37;98434.06;5052387;28;20449;-72
2023/04/18 00:57:54;;;;;;;6.00;4.60;;;6.60;85.40;;;6.84;71.64;98438.47;5044815;28;20448;-72
2023/04/18 01:00:22;;;;;;;7.20;4.90;;;6.60;85.00;;;6.61;72.94;98438.50;5039085;28;20958;-72
2023/04/18 01:02:51;;;;;;;5.73;4.67;;;6.50;85.40;;;6.42;72.73;98440.63;5044367;28;20962;-72
2023/04/18 01:05:20;;;;;;;6.17;5.00;;;6.30;85.90;;;6.29;73.76;98449.28;5043285;28;20546;-72
2023/04/18 01:07:49;;;;;;;7.00;5.20;;;6.20;86.40;;;6.54;73.13;98448.28;5037123;28;20470;-73
2023/04/18 01:10:16;;;;;;;5.50;4.50;;;6.20;87.20;;;6.55;73.46;98449.94;5066700;28;20462;-72
2023/04/18 01:12:44;;;;;;;5.80;4.90;;;6.30;87.70;;;6.41;72.93;98438.94;5052034;28;20453;-72
2023/04/18 01:15:11;;;;;;;8.00;5.00;;;6.30;86.70;;;6.34;74.20;98438.00;5047050;28;20473;-72
2023/04/18 01:17:38;;;;;;;5.40;4.50;;;6.20;87.20;;;6.03;73.30;98369.13;5035984;28;20457;-71
2023/04/18 01:20:08;;;;;;;7.93;5.33;;;6.30;87.50;;;6.44;73.18;98437.78;5040821;28;20454;-73
2023/04/18 01:22:35;;;;;;;6.40;5.00;;;6.30;86.10;;;6.37;73.19;98417.03;5034700;28;20520;-74
2023/04/18 01:25:09;;;;;;;6.63;4.37;;;6.30;86.70;;;6.43;73.10;98420.81;5040639;28;20453;-74
2023/04/18 01:27:37;;;;;;;7.27;5.87;;;6.30;86.70;;;5.68;73.60;98316.63;5038717;28;20462;-73
2023/04/18 01:30:05;;;;;;;8.90;5.67;;;6.30;86.70;;;6.28;73.77;98406.50;5039390;28;20532;-73
2023/04/18 01:32:32;;;;;;;4.70;4.27;;;6.30;87.20;;;6.42;73.48;98412.97;5051758;28;20459;-72
2023/04/18 01:35:01;;;;;;;8.10;5.10;;;6.30;86.30;;;6.40;72.95;98421.19;5059335;28;20482;-73
2023/04/18 01:37:28;;;;;;;6.10;5.33;;;6.30;86.80;;;6.43;73.64;98425.38;5063777;28;20453;-74
2023/04/18 01:39:57;;;;;;;8.33;5.40;;;6.20;86.90;;;5.93;73.15;98346.00;5034099;28;20546;-74
2023/04/18 01:42:25;;;;;;;7.03;5.23;;;6.20;86.70;;;6.63;72.08;98431.91;5044065;28;20920;-73
2023/04/18 01:44:52;;;;;;;6.23;4.70;;;6.20;86.80;;;6.51;72.53;98426.13;5036056;28;20982;-76
2023/04/18 01:47:20;;;;;;;6.10;5.00;;;6.20;86.70;;;6.44;73.38;98427.84;5032986;28;20560;-72
2023/04/18 01:49:47;;;;;;;7.80;5.00;;;6.20;87.20;;;6.30;73.77;98425.97;5065259;28;20456;-74
2023/04/18 01:52:16;;;;;;;6.67;4.60;;;6.10;87.70;;;6.43;72.45;98426.19;5049761;28;20454;-75
2023/04/18 01:54:43;;;;;;;5.40;4.47;;;6.10;86.60;;;6.28;73.07;98415.41;5040776;28;20820;-73
2023/04/18 01:57:10;;;;;;;5.93;4.87;;;6.10;87.20;;;6.42;72.61;98424.50;5033449;28;20451;-73
2023/04/18 01:59:39;;;;;;;6.33;4.97;;;6.10;87.00;;;6.22;72.62;98397.34;5048779;28;20573;-73
2023/04/18 02:02:06;;;;;;;6.93;4.47;;;6.10;86.90;;;6.48;73.13;98412.22;5036511;28;20466;-73
2023/04/18 02:04:33;;;;;;;6.37;5.00;;;6.10;87.50;;;6.67;72.34;98418.97;5030954;28;20475;-72
2023/04/18 02:07:01;;;;;;;8.93;5.77;;;6.40;86.10;;;6.56;72.04;98403.28;5034956;28;20454;-73
2023/04/18 02:09:28;;;;;;;5.30;3.77;;;6.40;85.60;;;6.08;72.20;98361.34;5047437;28;20458;-72
2023/04/18 02:11:58;;;;;;;7.27;5.07;;;6.30;85.40;;;6.43;72.71;98415.44;5043687;28;20446;-72
2023/04/18 02:14:26;;;;;;;5.47;4.83;;;6.30;85.70;;;6.37;72.58;98386.66;5040853;28;20507;-74
2023/04/18 02:16:55;;;;;;;6.90;4.70;;;6.30;86.10;;;6.36;72.57;98404.59;5043064;28;20454;-73
2023/04/18 02:19:23;;;;;;;6.97;5.03;;;6.20;85.70;;;6.57;72.37;98402.25;5035065;28;21003;-71
2023/04/18 02:21:51;;;;;;;5.93;4.90;;;6.30;85.90;;;6.57;72.04;98391.53;5039568;28;20848;-73
2023/04/18 02:24:20;;;;;;;6.70;4.47;;;6.30;86.20;;;6.07;72.79;98351.66;5051720;28;20457;-72
2023/04/18 02:26:48;;;;;;;4.97;3.90;;;6.30;85.60;;;6.48;72.78;98418.44;5032790;28;20495;-72
2023/04/18 02:29:15;;;;;;;7.67;5.20;;;6.30;86.10;;;6.29;71.85;98351.81;5030924;28;20457;-71
2023/04/18 02:31:42;;;;;;;6.10;4.07;;;6.30;86.00;;;6.66;71.80;98415.44;5054577;28;20486;-72
2023/04/18 02:34:11;;;;;;;6.37;4.70;;;6.40;85.70;;;6.42;71.73;98376.19;5044062;28;20549;-74
2023/04/18 02:36:38;;;;;;;6.93;5.47;;;6.30;85.80;;;6.75;71.88;98405.50;5032416;28;20443;-72
2023/04/18 02:39:06;;;;;;;4.73;3.67;;;6.40;86.20;;;6.72;71.72;98408.50;5045268;28;20841;-73
2023/04/18 02:41:36;;;;;;;5.77;4.57;;;6.40;85.50;;;6.59;71.96;98387.66;5032963;28;20461;-75
2023/04/18 02:44:03;;;;;;;7.27;5.57;;;6.50;85.50;;;6.27;71.88;98345.78;5033547;28;20438;-74
2023/04/18 02:46:30;;;;;;;8.03;5.17;;;6.40;85.70;;;6.51;71.87;98353.66;5032252;28;20458;-73
2023/04/18 02:48:58;;;;;;;7.93;4.53;;;6.50;86.40;;;6.75;71.45;98397.44;5034539;28;20462;-74
2023/04/18 02:51:28;;;;;;;6.50;4.40;;;6.50;85.90;;;6.69;71.77;98379.34;5044790;28;21130;-74
2023/04/18 02:53:55;;;;;;;7.60;5.23;;;6.60;85.70;;;6.92;71.70;98418.78;5034096;28;20521;-74
2023/04/18 02:56:22;;;;;;;6.37;4.70;;;6.50;85.70;;;6.82;71.80;98412.81;5033694;28;20450;-73
2023/04/18 02:58:50;;;;;;;6.53;4.87;;;6.50;85.60;;;6.97;71.64;98426.25;5038178;28;20447;-73
2023/04/18 03:01:18;;;;;;;7.43;5.20;;;6.50;85.80;;;7.01;71.07;98412.28;5056204;28;20972;-73
2023/04/18 03:03:45;;;;;;;5.93;5.10;;;6.60;85.80;;;6.99;71.37;98414.31;5040063;28;20838;-71
2023/04/18 03:06:12;;;;;;;9.03;4.90;;;6.70;85.70;;;6.65;72.06;98380.72;5037354;28;20449;-73
2023/04/18 03:08:41;;;;;;;7.13;5.90;;;6.60;85.30;;;6.82;72.05;98410.13;5038658;28;20459;-73
2023/04/18 03:11:08;;;;;;;8.07;5.30;;;6.60;85.90;;;6.77;72.87;98424.94;5030865;28;20543;-73
2023/04/18 03:13:36;;;;;;;7.67;4.40;;;6.60;86.00;;;6.78;72.62;98415.88;5030826;28;20880;-76
2023/04/18 03:16:03;;;;;;;6.23;4.93;;;6.50;86.20;;;6.55;73.04;98398.94;5033632;28;20853;-73
2023/04/18 03:18:30;;;;;;;7.33;5.40;;;6.40;87.00;;;6.73;72.65;98410.19;5037008;28;20467;-74
2023/04/18 03:20:58;;;;;;;6.90;5.00;;;6.50;87.10;;;6.40;73.89;98420.38;5037530;28;20468;-73
2023/04/18 03:23:25;;;;;;;6.70;5.87;;;6.30;87.10;;;6.55;73.46;98420.41;5037780;28;20453;-73
2023/04/18 03:25:54;;;;;;;5.97;4.87;;;6.30;88.10;;;6.68;73.21;98403.72;5036755;28;20499;-72
2023/04/18 03:28:21;;;;;;;7.37;5.30;;;6.40;88.60;;;6.81;72.58;98420.00;5033817;28;20465;-71
2023/04/18 03:30:49;;;;;;;7.80;5.33;;;6.40;87.80;;;6.68;73.05;98404.53;5051841;28;21231;-73
2023/04/18 03:33:16;;;;;;;6.87;5.23;;;6.40;88.00;;;6.88;72.85;98422.81;5033903;28;20445;-74
2023/04/18 03:35:44;;;;;;;7.10;5.07;;;6.40;88.50;;;6.91;72.86;98417.09;5037810;28;20446;-74
2023/04/18 03:38:11;;;;;;;5.97;5.10;;;6.50;87.80;;;6.74;73.09;98402.97;5035009;28;20481;-73
2023/04/18 03:40:38;;;;;;;6.70;4.60;;;6.50;87.50;;;6.76;73.67;98425.94;5056180;28;20970;-74
2023/04/18 03:43:07;;;;;;;8.57;5.53;;;6.40;88.20;;;6.82;73.75;98419.00;5041920;28;20451;-74
2023/04/18 03:45:34;;;;;;;8.03;4.77;;;6.50;88.20;;;6.94;73.21;98405.97;5025426;28;20955;-74
2023/04/18 03:48:02;;;;;;;10.27;5.70;;;6.50;88.60;;;7.24;72.44;98416.78;5035930;28;20471;-73
2023/04/18 03:50:29;;;;;;;7.43;6.03;;;6.70;87.90;;;7.05;72.67;98410.94;5045057;28;20452;-74
2023/04/18 03:52:56;;;;;;;9.93;6.20;;;6.70;87.30;;;7.16;72.61;98415.00;5036205;28;20448;-73
2023/04/18 03:55:23;;;;;;;6.97;5.20;;;6.80;87.40;;;7.38;72.35;98417.78;5039784;28;20475;-74
2023/04/18 03:57:51;;;;;;;10.87;5.07;;;7.00;87.60;;;7.42;71.64;98402.94;5039718;28;20454;-75
2023/04/18 04:00:19;;;;;;;7.63;5.17;;;7.10;86.80;;;7.17;71.93;98345.97;5056873;28;20451;-73
2023/04/18 04:02:47;;;;;;;7.07;5.33;;;7.20;86.30;;;7.54;72.19;98399.81;5042956;28;20447;-75
2023/04/18 04:05:14;;;;;;;9.90;6.40;;;7.30;86.50;;;7.18;72.09;98355.69;5044330;28;20516;-73
2023/04/18 04:07:41;;;;;;;6.93;4.70;;;7.30;86.20;;;7.65;72.24;98418.97;5042131;28;20450;-75
2023/04/18 04:10:09;;;;;;;8.10;4.93;;;7.40;86.20;;;7.54;72.64;98416.78;5034870;28;20461;-74
2023/04/18 04:12:36;;;;;;;10.87;6.33;;;7.30;86.40;;;7.57;72.03;98400.28;5050184;28;20452;-74
2023/04/18 04:15:05;;;;;;;9.50;6.70;;;7.40;86.60;;;7.57;72.62;98421.78;5036863;28;20471;-76
2023/04/18 04:17:34;;;;;;;8.77;5.43;;;7.40;86.40;;;7.80;72.17;98426.19;5063572;28;20465;-76
2023/04/18 04:20:02;;;;;;;9.90;6.80;;;7.50;86.30;;;7.71;72.35;98424.66;5033041;28;20462;-75
2023/04/18 04:22:31;;;;;;;8.13;6.23;;;7.50;86.20;;;7.76;72.26;98430.28;5044299;28;20508;-75
2023/04/18 04:24:59;;;;;;;9.60;5.80;;;7.50;86.30;;;7.70;72.40;98414.91;5039886;28;20565;-73
2023/04/18 04:27:27;;;;;;;9.13;6.43;;;7.60;86.40;;;7.67;72.18;98416.13;5038314;28;20552;-76
2023/04/18 04:29:55;;;;;;;10.10;6.63;;;7.60;86.40;;;7.76;72.19;98439.22;5062383;28;20457;-74
2023/04/18 04:32:22;;;;;;;8.87;6.10;;;7.50;86.60;;;7.78;72.92;98436.31;5038263;28;20542;-73
2023/04/18 04:34:52;;;;;;;9.80;7.20;;;7.60;86.50;;;7.75;72.35;98417.88;5043883;28;20475;-74
2023/04/18 04:37:19;;;;;;;10.20;6.70;;;7.60;86.40;;;7.93;71.72;98450.59;5068897;28;20707;-71
2023/04/18 04:39:47;;;;;;;10.13;6.07;;;7.60;86.30;;;7.89;71.56;98417.00;5039820;28;20453;-73
2023/04/18 04:42:14;;;;;;;7.57;5.90;;;7.70;86.30;;;8.02;72.09;98453.19;5038755;28;20456;-75
2023/04/18 04:44:41;;;;;;;11.90;7.00;;;7.70;86.20;;;7.92;72.35;98458.88;5041036;28;20462;-75
2023/04/18 04:47:09;;;;;;;10.83;6.10;;;7.70;86.20;;;8.01;71.92;98456.91;5035809;28;20564;-75
2023/04/18 04:49:36;;;;;;;10.03;6.50;;;7.70;86.50;;;7.96;72.02;98448.53;5035912;28;20517;-76
2023/04/18 04:52:05;;;;;;;8.93;6.43;;;7.70;85.90;;;8.07;71.42;98431.91;5040324;28;20620;-70
2023/04/18 04:54:32;;;;;;;9.60;5.63;;;7.80;86.10;;;8.09;71.62;98451.41;5045144;28;20454;-75
2023/04/18 04:57:00;;;;;;;9.53;6.30;;;7.80;86.60;;;8.29;71.29;98451.63;5046027;28;20443;-77
2023/04/18 04:59:27;;;;;;;9.47;6.70;;;7.90;85.90;;;8.34;71.25;98443.00;5047595;28;20489;-77
2023/04/18 05:01:54;;;;;;;14.30;5.70;;;7.90;85.90;;;8.61;70.35;98448.69;5051894;28;20437;-76
2023/04/18 05:04:21;;;;;;;11.10;6.50;;;8.00;86.10;;;8.49;70.77;98449.16;5044430;28;21265;-73
2023/04/18 05:06:48;;;;;;;7.50;5.80;;;8.00;85.80;;;8.31;71.25;98457.66;5025197;28;20478;-76
2023/04/18 05:09:17;;;;;;;8.60;5.47;;;8.10;85.70;;;8.42;70.66;98434.81;5034941;28;20800;-80
2023/04/18 05:11:44;;;;;;;7.63;6.07;;;8.20;85.60;;;8.17;70.56;98393.91;5035980;28;20450;-77
2023/04/18 05:14:11;;;;;;;8.60;5.93;;;8.20;85.30;;;8.42;70.64;98456.34;5051564;28;20470;-81
2023/04/18 05:16:39;;;;;;;8.10;5.77;;;8.20;84.90;;;8.34;71.36;98459.16;5034108;28;20477;-78
2023/04/18 05:19:06;;;;;;;9.17;6.50;;;8.20;85.10;;;8.56;71.21;98462.72;5068889;28;20464;-70
2023/04/18 05:21:33;;;;;;;9.17;5.23;;;8.20;85.60;;;8.49;70.51;98459.94;5035912;28;20453;-78
2023/04/18 05:24:00;;;;;;;9.27;6.10;;;8.20;84.90;;;8.53;70.67;98454.19;5035188;28;20527;-75
2023/04/18 05:26:29;;;;;;;11.23;6.10;;;8.30;85.10;;;8.66;69.85;98461.59;5037503;28;20461;-71
2023/04/18 05:28:56;;;;;;;8.37;6.17;;;8.30;84.90;;;8.62;70.00;98444.97;5041571;28;21282;-77
2023/04/18 05:31:24;;;;;;;11.60;6.50;;;8.40;84.70;;;8.95;69.11;98467.84;5045701;28;20882;-79
2023/04/18 05:33:51;;;;;;;10.13;6.60;;;8.50;84.50;;;8.82;69.69;98466.72;5042461;28;20451;-79
2023/04/18 05:36:19;;;;;;;11.03;6.50;;;8.50;84.10;;;8.81;69.51;98465.03;5038975;28;20589;-79
2023/04/18 05:38:46;;;;;;;9.70;5.90;;;8.60;84.20;;;8.67;70.28;98466.75;5041468;28;20534;-82
2023/04/18 05:41:13;;;;;;;11.23;7.13;;;8.50;84.20;;;8.74;70.36;98464.97;5046198;28;20546;-72
2023/04/18 05:43:42;;;;;;;8.27;5.93;;;8.50;84.40;;;8.84;70.08;98466.50;5064915;28;20464;-73
2023/04/18 05:46:11;;;;;;;6.50;5.00;;;8.50;84.30;;;8.90;70.02;98461.16;5055056;28;20463;-76
2023/04/18 05:48:38;;;;;;;13.53;6.37;;;8.60;84.50;;;8.90;69.46;98465.75;5044911;28;20458;-78
2023/04/18 05:51:06;;;;;;;9.80;7.13;;;8.60;84.20;;;8.96;69.44;98462.25;5043635;28;20848;-80
2023/04/18 05:53:33;;;;;;;11.57;7.37;;;8.60;84.30;;;8.91;69.92;98464.72;5036440;28;20940;-71
2023/04/18 05:56:00;;;;;;;10.33;7.03;;;8.60;84.20;;;9.06;69.72;98478.09;5032072;28;20492;-78
2023/04/18 05:58:28;;;;;;;12.83;7.23;;;8.70;84.30;;;9.11;69.41;98470.28;5038156;28;20820;-80
2023/04/18 06:00:56;;;;;;;10.50;5.93;;;8.80;84.20;;;9.23;68.60;98481.34;5045389;28;20524;-72
2023/04/18 06:03:24;;;;;;;12.30;6.60;;;8.90;83.90;;;9.01;69.63;98478.69;5042779;28;20455;-80
2023/04/18 06:05:51;;;;;;;8.67;6.10;;;8.80;83.50;;;9.18;69.14;98486.50;5049338;28;20534;-82
2023/04/18 06:08:18;;;;;;;10.00;6.10;;;8.90;83.60;;;9.21;69.12;98472.63;5050720;28;20447;-82
2023/04/18 06:10:46;;;;;;;10.03;6.30;;;9.00;83.60;;;9.19;69.10;98480.91;5055818;28;20461;-81
2023/04/18 06:13:13;;;;;;;14.53;8.30;;;8.90;83.40;;;9.13;69.37;98470.91;5044525;28;20451;-78
2023/04/18 06:15:40;;;;;;;9.47;6.07;;;9.00;83.70;;;9.42;68.71;98481.69;5045989;28;20562;-76
2023/04/18 06:18:09;;;;;;;9.30;6.67;;;9.00;83.70;;;9.64;68.69;98475.22;5044507;28;21065;-80
2023/04/18 06:20:36;;;;;;;12.40;7.50;;;9.10;84.10;;;9.73;67.94;98483.13;5042957;28;20456;-78
2023/04/18 06:23:03;;;;;;;9.47;5.93;;;9.30;83.10;;;9.87;66.97;98482.19;5050113;28;20469;-79
2023/04/18 06:25:30;;;;;;;8.03;5.40;;;9.60;82.80;;;10.32;65.52;98480.94;5030512;28;20454;-79
2023/04/18 06:27:57;;;;;;;10.00;7.17;;;9.90;82.10;;;10.63;65.10;98477.72;5033522;28;20500;-79
2023/04/18 06:30:25;;;;;;;11.40;7.80;;;10.20;80.40;;;10.56;64.49;98482.28;5042227;28;20448;-78
2023/04/18 06:32:52;;;;;;;9.93;6.90;;;10.40;79.20;;;10.42;65.45;98480.56;5045953;28;20453;-78
2023/04/18 06:35:22;;;;;;;11.07;6.67;;;10.30;79.30;;;9.84;65.62;98425.06;5041561;28;21065;-77
2023/04/18 06:37:49;;;;;;;8.73;5.90;;;10.30;79.30;;;10.85;63.93;98492.94;5049059;28;20545;-81
2023/04/18 06:40:17;;;;;;;6.50;4.60;;;10.50;79.40;;;11.15;63.07;98487.97;5055139;28;20494;-80
2023/04/18 06:42:45;;;;;;;9.80;6.57;;;10.80;78.70;;;10.47;63.97;98488.91;5075016;28;20449;-77
2023/04/18 06:45:12;;;;;;;9.83;6.57;;;10.50;78.30;;;10.49;64.44;98497.66;5049510;28;20447;-77
2023/04/18 06:47:41;;;;;;;6.10;4.80;;;10.30;78.90;;;10.33;65.29;98478.03;5050067;28;20978;-77
2023/04/18 06:50:10;;;;;;;8.93;5.43;;;10.30;79.10;;;10.36;64.99;98482.19;5049949;28;20458;-78
2023/04/18 06:52:43;;;;;;;9.40;7.00;;;10.20;79.10;;;10.62;64.15;98480.63;5050429;28;20566;-79
2023/04/18 06:55:11;;;;;;;9.03;6.40;;;10.40;79.10;;;10.71;63.49;98489.38;5047231;28;21349;-76
2023/04/18 06:57:41;;;;;;;9.17;5.40;;;10.50;78.60;;;10.83;63.90;98501.25;5045182;28;20467;-78
2023/04/18 07:00:10;;;;;;;9.00;6.00;;;10.50;78.70;;;11.15;63.26;98489.88;5040935;28;20494;-80
2023/04/18 07:02:39;;;;;;;10.07;6.60;;;10.80;78.50;;;10.79;62.78;98458.63;5045121;28;20589;-79
2023/04/18 07:05:07;;;;;;;8.30;6.13;;;10.90;77.80;;;10.95;63.50;98506.88;5068223;28;20494;-79
2023/04/18 07:07:35;;;;;;;8.43;5.70;;;10.80;77.90;;;11.20;62.04;98509.00;5053112;28;20490;-74
2023/04/18 07:10:05;;;;;;;9.80;6.97;;;10.90;77.70;;;10.97;62.40;98480.47;5051675;28;20464;-78
2023/04/18 07:12:32;;;;;;;8.20;6.07;;;11.00;77.40;;;10.88;63.80;98495.25;5045938;28;21069;-76
2023/04/18 07:15:00;;;;;;;7.77;5.40;;;10.70;78.00;;;11.27;62.02;98496.28;5051192;28;20498;-75
2023/04/18 07:17:27;;;;;;;9.07;6.23;;;10.90;77.50;;;11.55;61.07;98502.53;5044270;28;20481;-76
2023/04/18 07:19:54;;;;;;;6.43;5.37;;;11.10;77.20;;;11.94;60.25;98508.09;5063134;28;20494;-78
2023/04/18 07:22:21;;;;;;;7.93;5.87;;;11.50;76.80;;;11.93;59.55;98507.25;5048580;28;20483;-80
2023/04/18 07:24:48;;;;;;;9.47;5.93;;;11.70;76.20;;;12.03;59.54;98510.38;5029207;28;20467;-80
2023/04/18 07:27:17;;;;;;;6.43;4.67;;;11.70;75.90;;;12.41;58.35;98506.06;5047175;28;20461;-82
2023/04/18 07:29:44;;;;;;;6.97;4.90;;;12.00;75.50;;;12.63;57.69;98503.03;5045899;28;20452;-83
2023/04/18 07:32:12;;;;;;;9.47;5.73;;;12.40;74.40;;;13.15;56.23;98502.91;5057891;28;20470;-78
2023/04/18 07:34:39;;;;;;;7.87;5.00;;;12.70;73.80;;;13.20;55.91;98469.69;5051246;28;20451;-79
2023/04/18 07:37:06;;;;;;;6.63;4.80;;;13.00;73.50;;;12.72;56.58;98503.59;5050179;28;20444;-73
2023/04/18 07:39:35;;;;;;;7.47;5.50;;;12.70;72.10;;;12.10;58.19;98504.94;5053012;28;20494;-80
2023/04/18 07:42:03;;;;;;;8.03;4.73;;;12.30;73.00;;;11.99;58.61;98510.97;5044213;28;20469;-81
2023/04/18 07:44:34;;;;;;;8.03;6.00;;;12.00;73.10;;;11.71;58.68;98493.13;5053972;28;20973;-81
2023/04/18 07:47:02;;;;;;;7.50;5.73;;;11.80;73.40;;;11.87;59.20;98508.09;5043767;28;20559;-78
2023/04/18 07:49:29;;;;;;;6.57;5.43;;;11.70;73.80;;;12.19;58.61;98509.06;5042613;28;20536;-82
2023/04/18 07:51:57;;;;;;;7.13;4.87;;;11.90;74.20;;;12.57;57.37;98512.03;5048775;28;20467;-79
2023/04/18 07:54:24;;;;;;;7.27;6.13;;;12.10;73.70;;;12.24;57.58;98491.34;5046393;28;20460;-77
2023/04/18 07:56:51;;;;;;;6.37;5.20;;;12.20;73.20;;;11.64;60.05;98497.72;5043074;28;20474;-80
2023/04/18 07:59:19;;;;;;;7.17;5.10;;;11.80;73.50;;;12.42;57.94;98498.75;5047880;28;20467;-74
2023/04/18 08:01:47;;;;;;;6.97;5.60;;;12.00;73.90;;;12.86;57.03;98488.09;5057236;28;20528;-70
2023/04/18 08:04:15;;;;;;;5.87;4.40;;;12.30;73.80;;;13.06;55.99;98504.25;5065317;28;20480;-79
2023/04/18 08:06:42;;;;;;;5.40;4.90;;;12.60;72.60;;;13.36;55.01;98495.44;5048077;28;20466;-75
2023/04/18 08:09:10;;;;;;;8.07;5.03;;;12.90;71.80;;;13.25;54.86;98505.13;5053889;28;20492;-82
2023/04/18 08:11:38;;;;;;;6.30;5.70;;;13.00;71.20;;;13.41;54.87;98497.47;5045481;28;20497;-81
2023/04/18 08:14:05;;;;;;;5.37;4.53;;;13.10;71.10;;;13.34;54.94;98510.28;5049676;28;20458;-77
2023/04/18 08:16:32;;;;;;;5.47;4.93;;;13.10;70.90;;;13.02;55.89;98525.53;5051689;28;20530;-74
2023/04/18 08:19:01;;;;;;;7.20;5.60;;;13.00;70.40;;;13.11;55.68;98523.38;5050746;28;20463;-79
2023/04/18 08:21:28;;;;;;;6.07;4.77;;;13.00;70.70;;;13.10;55.22;98521.72;5043762;28;20949;-75
2023/04/18 08:23:56;;;;;;;5.63;4.57;;;13.00;70.20;;;13.19;55.33;98497.88;5049528;28;20553;-81
2023/04/18 08:26:24;;;;;;;6.30;5.70;;;13.00;70.60;;;13.44;54.22;98514.19;5043933;28;20464;-80
2023/04/18 08:28:51;;;;;;;8.43;5.07;;;13.30;69.80;;;12.93;55.53;98515.19;5068951;28;20890;-77
2023/04/18 08:31:19;;;;;;;6.40;4.97;;;13.00;69.50;;;13.15;55.38;98502.91;5041123;28;20540;-80
2023/04/18 08:33:46;;;;;;;5.40;4.70;;;13.10;70.00;;;13.42;54.73;98507.28;5050662;28;20832;-81
2023/04/18 08:36:16;;;;;;;6.43;5.30;;;13.20;69.60;;;13.88;53.58;98503.34;5053939;28;21193;-82
2023/04/18 08:38:43;;;;;;;6.53;5.20;;;13.50;69.90;;;14.34;52.15;98496.75;5040269;28;21022;-77
2023/04/18 08:41:12;;;;;;;5.17;4.60;;;13.90;68.50;;;14.44;51.73;98492.44;5069849;28;20452;-78
2023/04/18 08:43:39;;;;;;;6.70;4.90;;;14.00;68.30;;;14.35;51.31;98491.09;5033577;28;20464;-79
2023/04/18 08:46:07;;;;;;;7.30;5.07;;;14.30;66.80;;;14.09;52.79;98506.66;5064276;28;20501;-72
2023/04/18 08:48:35;;;;;;;5.57;4.80;;;14.10;67.00;;;14.21;51.90;98508.63;5052895;28;20487;-74
2023/04/18 08:51:04;;;;;;;5.60;4.23;;;14.00;66.90;;;13.83;52.97;98502.34;5046366;28;20507;-81
2023/04/18 08:53:34;;;;;;;6.53;4.03;;;13.80;66.90;;;13.56;54.39;98513.47;5046854;28;20496;-78
2023/04/18 08:56:02;;;;;;;5.63;3.60;;;13.50;67.90;;;13.55;53.37;98469.19;5036837;28;20495;-75
2023/04/18 08:58:32;;;;;;;4.97;4.40;;;13.40;67.70;;;13.34;54.23;98518.44;5037006;28;21041;-73
2023/04/18 09:00:59;;;;;;;5.70;5.07;;;13.30;67.70;;;13.66;53.93;98512.97;5040433;28;20457;-79
2023/04/18 09:03:38;;;;;;;6.93;5.13;;;13.30;68.50;;;13.70;53.33;98509.56;5049397;28;20464;-81
2023/04/18 09:06:12;;;;;;;5.80;4.23;;;13.40;68.10;;;13.65;53.89;98517.56;5044496;28;20461;-74
2023/04/18 09:08:43;;;;;;;5.00;4.33;;;13.40;68.20;;;14.06;52.83;98506.28;5042329;28;20526;-75
2023/04/18 09:11:24;;;;;;;7.30;4.77;;;13.60;68.00;;;14.43;52.73;98507.09;5045996;28;20449;-80
2023/04/18 09:13:54;;;;;;;6.17;4.73;;;13.90;68.00;;;14.30;52.36;98507.25;5048291;28;20524;-79
2023/04/18 09:16:23;;;;;;;5.03;4.53;;;14.10;67.40;;;14.02;52.72;98508.59;5043354;28;20481;-78
2023/04/18 09:19:12;;;;;;;7.20;4.50;;;14.00;66.40;;;14.14;52.44;98520.38;5048981;28;20453;-79
2023/04/18 09:21:41;;;;;;;4.60;3.80;;;13.90;66.60;;;13.94;52.80;98515.16;5063294;28;20464;-75
2023/04/18 09:24:25;;;;;;;4.73;4.33;;;13.80;66.90;;;13.93;53.15;98507.25;5053197;28;20458;-76
2023/04/18 09:26:55;;;;;;;5.03;4.20;;;13.60;67.10;;;14.02;53.67;98511.31;5047685;28;20457;-78
2023/04/18 09:29:24;;;;;;;5.23;4.73;;;13.60;67.80;;;13.86;53.96;98510.84;5047104;28;20557;-79
2023/04/18 09:32:02;;;;;;;5.73;4.30;;;13.60;67.80;;;13.86;53.60;98502.72;5068475;28;20454;-83
2023/04/18 09:34:32;;;;;;;4.63;4.23;;;13.60;67.60;;;13.80;54.11;98508.22;5041928;28;20461;-82
2023/04/18 09:37:08;;;;;;;6.40;4.47;;;13.50;67.90;;;13.60;54.50;98517.38;5045325;28;20469;-81
2023/04/18 09:39:38;;;;;;;5.83;3.80;;;13.40;68.20;;;13.61;54.24;98505.47;5042210;28;20816;-81
2023/04/18 09:42:06;;;;;;;4.17;3.50;;;13.30;68.20;;;13.80;53.87;98506.34;5044577;28;20519;-81
2023/04/18 09:44:34;;;;;;;4.57;3.37;;;13.40;68.20;;;14.46;52.97;98503.09;5042610;28;20464;-78
2023/04/18 09:47:01;;;;;;;5.30;4.40;;;13.80;68.50;;;14.53;52.34;98500.28;5039740;28;20809;-81
2023/04/18 09:49:29;;;;;;;5.10;4.13;;;14.00;67.70;;;14.58;52.40;98505.84;5043541;28;20512;-79
2023/04/18 09:51:57;;;;;;;4.50;4.00;;;14.10;67.70;;;14.42;52.72;98500.00;5043086;28;20580;-78
2023/04/18 09:54:25;;;;;;;4.53;3.47;;;14.20;67.10;;;14.68;51.42;98499.84;5057418;28;20457;-80
2023/04/18 09:56:55;;;;;;;4.77;4.10;;;14.30;66.60;;;14.78;51.68;98502.91;5061618;28;20479;-73
2023/04/18 09:59:41;;;;;;;3.63;2.97;;;14.40;66.10;;;14.90;51.09;98507.56;5059591;28;21036;-79
2023/04/18 10:02:15;;;;;;;4.97;3.60;;;14.40;65.80;;;14.53;51.49;98503.81;5047363;28;20473;-75
2023/04/18 10:04:46;;;;;;;4.30;3.07;;;14.30;65.30;;;14.93;51.11;98499.72;5049831;28;20460;-76
2023/04/18 10:07:15;;;;;;;3.80;3.37;;;14.30;66.10;;;14.55;51.99;98487.28;5043652;28;20457;-82
2023/04/18 10:09:46;;;;;;;4.20;3.63;;;14.30;66.30;;;14.58;52.32;98505.84;5048817;28;20476;-78
2023/04/18 10:12:17;;;;;;;5.10;4.00;;;14.30;66.30;;;14.78;51.08;98499.31;5064488;28;21024;-79
2023/04/18 10:14:45;;;;;;;5.77;3.73;;;14.30;65.80;;;14.75;51.08;98500.66;5051206;28;20476;-80
2023/04/18 10:17:14;;;;;;;4.40;4.00;;;14.20;65.80;;;14.58;51.41;98492.25;5047129;28;20481;-81
2023/04/18 10:19:44;;;;;;;3.43;3.13;;;14.10;65.70;;;14.34;52.51;98500.31;5056813;28;20463;-77
2023/04/18 10:22:13;;;;;;;3.20;2.87;;;14.00;65.80;;;14.13;52.63;98488.84;5047490;28;20497;-76
2023/04/18 10:24:51;;;;;;;4.37;2.93;;;13.80;65.90;;;14.24;52.33;98506.25;5050374;28;20457;-78
2023/04/18 10:27:57;;;;;;;3.40;3.10;;;13.80;66.10;;;13.85;52.96;98495.63;5049651;28;20496;-80
2023/04/18 10:30:54;;;;;;;3.50;3.00;;;13.70;66.30;;;14.23;52.13;98496.44;5073035;28;20556;-82
2023/04/18 10:33:32;;;;;;;3.83;3.50;;;13.70;66.20;;;14.59;51.45;98491.19;5036271;28;20459;-76